TimeEDT,TemperatureF,Dew PointF,Humidity,Sea Level PressureIn,VisibilityMPH,Wind Direction,Wind SpeedMPH,Gust SpeedMPH,PrecipitationIn,Events,Conditions,WindDirDegrees,DateUTC
12:54 AM,51.1,45.0,80,30.14,10.0,Calm,Calm,-,N/A,,Overcast,0,2012-10-24 04:54:00
2:54 AM,51.1,43.0,74,30.13,10.0,Calm,Calm,-,N/A,,Overcast,0,2012-10-24 06:54:00
3:54 AM,51.1,39.0,63,30.12,10.0,NNE,4.6,-,N/A,,Overcast,30,2012-10-24 07:54:00
4:54 AM,51.1,30.9,46,30.14,10.0,NNE,4.6,-,N/A,,Overcast,30,2012-10-24 08:54:00
5:54 AM,50.0,34.0,54,30.15,10.0,Calm,Calm,-,N/A,,Overcast,0,2012-10-24 09:54:00
6:54 AM,50.0,36.0,59,30.16,10.0,Calm,Calm,-,N/A,,Overcast,0,2012-10-24 10:54:00
7:54 AM,50.0,28.9,44,30.17,10.0,NNE,3.5,-,N/A,,Overcast,20,2012-10-24 11:54:00
8:54 AM,51.1,28.9,43,30.18,10.0,Calm,Calm,-,N/A,,Overcast,0,2012-10-24 12:54:00
9:54 AM,51.1,30.9,46,30.17,10.0,Calm,Calm,-,0.00,Rain,Light Rain,0,2012-10-24 13:54:00
10:54 AM,52.0,30.9,45,30.18,10.0,North,3.5,-,0.00,,Overcast,360,2012-10-24 14:54:00
11:54 AM,53.1,32.0,45,30.17,10.0,Calm,Calm,-,0.00,Rain,Light Rain,0,2012-10-24 15:54:00
12:54 PM,53.1,33.1,47,30.15,10.0,Calm,Calm,-,0.00,,Overcast,0,2012-10-24 16:54:00
1:54 PM,54.0,34.0,47,30.14,10.0,Calm,Calm,-,0.00,,Overcast,0,2012-10-24 17:54:00
2:54 PM,54.0,36.0,51,30.14,10.0,Calm,Calm,-,N/A,,Overcast,0,2012-10-24 18:54:00
3:54 PM,55.0,37.9,53,30.14,10.0,Calm,Calm,-,N/A,,Overcast,0,2012-10-24 19:54:00
5:42 PM,53.6,39.2,58,30.14,10.0,Calm,Calm,-,0.00,,Overcast,0,2012-10-24 21:42:00
5:52 PM,53.6,37.4,54,30.15,10.0,Calm,Calm,-,0.00,,Overcast,0,2012-10-24 21:52:00
5:54 PM,54.0,37.9,55,30.15,10.0,Calm,Calm,-,0.00,,Overcast,0,2012-10-24 21:54:00
6:54 PM,53.1,39.9,61,30.16,10.0,Calm,Calm,-,N/A,,Overcast,0,2012-10-24 22:54:00
7:54 PM,53.1,41.0,64,30.19,10.0,Calm,Calm,-,N/A,,Overcast,0,2012-10-24 23:54:00
8:54 PM,52.0,42.1,69,30.19,10.0,Calm,Calm,-,N/A,,Overcast,0,2012-10-25 00:54:00
9:54 PM,52.0,42.1,69,30.21,10.0,Calm,Calm,-,N/A,,Overcast,0,2012-10-25 01:54:00
10:54 PM,51.1,43.0,74,30.20,10.0,Calm,Calm,-,N/A,,Overcast,0,2012-10-25 02:54:00
11:54 PM,51.1,44.1,77,30.20,10.0,Calm,Calm,-,N/A,,Overcast,0,2012-10-25 03:54:00